sensor_id;sensor_type;location;lat;lon;timestamp;P1;durP1;ratioP1;P2;durP2;ratioP2
6452;SDS011;3259;51.080;13.712;2022-10-31T00:00:05;12.15;;;9.38;;
6452;SDS011;3259;51.080;13.712;2022-10-31T00:02:55;10.32;;;8.73;;
6452;SDS011;3259;51.080;13.712;2022-10-31T00:05:45;10.35;;;8.57;;
6452;SDS011;3259;51.080;13.712;2022-10-31T00:08:35;13.68;;;8.85;;
6452;SDS011;3259;51.080;13.712;2022-10-31T00:11:25;12.05;;;8.68;;
6452;SDS011;3259;51.080;13.712;2022-10-31T00:14:13;12.23;;;9.23;;
6452;SDS011;3259;51.080;13.712;2022-10-31T00:17:02;11.10;;;8.75;;
6452;SDS011;3259;51.080;13.712;2022-10-31T00:19:50;11.27;;;8.00;;
6452;SDS011;3259;51.080;13.712;2022-10-31T00:22:39;11.93;;;9.25;;
6452;SDS011;3259;51.080;13.712;2022-10-31T00:25:28;15.60;;;9.60;;
6452;SDS011;3259;51.080;13.712;2022-10-31T00:28:19;11.07;;;8.45;;
6452;SDS011;3259;51.080;13.712;2022-10-31T00:31:08;13.10;;;9.05;;
6452;SDS011;3259;51.080;13.712;2022-10-31T00:33:58;11.55;;;9.10;;
6452;SDS011;3259;51.080;13.712;2022-10-31T00:36:46;11.13;;;8.98;;
6452;SDS011;3259;51.080;13.712;2022-10-31T00:39:35;12.02;;;9.55;;
6452;SDS011;3259;51.080;13.712;2022-10-31T00:42:23;14.15;;;8.82;;
6452;SDS011;3259;51.080;13.712;2022-10-31T00:45:13;13.20;;;8.30;;
6452;SDS011;3259;51.080;13.712;2022-10-31T00:48:02;16.73;;;9.77;;
6452;SDS011;3259;51.080;13.712;2022-10-31T00:50:51;11.95;;;9.13;;
6452;SDS011;3259;51.080;13.712;2022-10-31T00:53:39;18.25;;;9.38;;
6452;SDS011;3259;51.080;13.712;2022-10-31T00:56:28;12.68;;;9.45;;
6452;SDS011;3259;51.080;13.712;2022-10-31T00:59:16;12.25;;;8.05;;
6452;SDS011;3259;51.080;13.712;2022-10-31T01:02:06;12.27;;;7.78;;
6452;SDS011;3259;51.080;13.712;2022-10-31T01:04:55;10.52;;;8.30;;
6452;SDS011;3259;51.080;13.712;2022-10-31T01:07:43;12.07;;;9.30;;
6452;SDS011;3259;51.080;13.712;2022-10-31T01:10:32;11.40;;;8.85;;
6452;SDS011;3259;51.080;13.712;2022-10-31T01:13:20;12.93;;;8.70;;
6452;SDS011;3259;51.080;13.712;2022-10-31T01:16:10;9.90;;;8.10;;
6452;SDS011;3259;51.080;13.712;2022-10-31T01:19:00;9.52;;;8.52;;
6452;SDS011;3259;51.080;13.712;2022-10-31T01:21:49;9.13;;;8.07;;
6452;SDS011;3259;51.080;13.712;2022-10-31T01:24:37;10.10;;;8.80;;
6452;SDS011;3259;51.080;13.712;2022-10-31T01:27:26;13.35;;;9.07;;
6452;SDS011;3259;51.080;13.712;2022-10-31T01:30:14;11.13;;;8.80;;
6452;SDS011;3259;51.080;13.712;2022-10-31T01:33:03;11.23;;;8.77;;
6452;SDS011;3259;51.080;13.712;2022-10-31T01:35:53;9.95;;;8.38;;
6452;SDS011;3259;51.080;13.712;2022-10-31T01:38:44;11.48;;;8.77;;
6452;SDS011;3259;51.080;13.712;2022-10-31T01:41:50;12.43;;;8.00;;
6452;SDS011;3259;51.080;13.712;2022-10-31T01:44:53;20.20;;;8.10;;
6452;SDS011;3259;51.080;13.712;2022-10-31T01:47:47;9.10;;;7.65;;
6452;SDS011;3259;51.080;13.712;2022-10-31T01:50:36;10.38;;;7.85;;
6452;SDS011;3259;51.080;13.712;2022-10-31T01:53:27;10.80;;;8.25;;
6452;SDS011;3259;51.080;13.712;2022-10-31T01:56:18;10.40;;;8.10;;
6452;SDS011;3259;51.080;13.712;2022-10-31T01:59:07;11.40;;;7.60;;
6452;SDS011;3259;51.080;13.712;2022-10-31T02:01:57;10.15;;;7.97;;
6452;SDS011;3259;51.080;13.712;2022-10-31T02:04:46;11.35;;;8.30;;
6452;SDS011;3259;51.080;13.712;2022-10-31T02:07:38;9.88;;;7.65;;
6452;SDS011;3259;51.080;13.712;2022-10-31T02:10:29;11.38;;;7.95;;
6452;SDS011;3259;51.080;13.712;2022-10-31T02:13:18;11.10;;;8.07;;
6452;SDS011;3259;51.080;13.712;2022-10-31T02:16:08;11.90;;;7.95;;
6452;SDS011;3259;51.080;13.712;2022-10-31T02:18:58;11.60;;;8.25;;
6452;SDS011;3259;51.080;13.712;2022-10-31T02:21:47;9.88;;;7.90;;
6452;SDS011;3259;51.080;13.712;2022-10-31T02:24:46;9.68;;;7.40;;
6452;SDS011;3259;51.080;13.712;2022-10-31T02:31:05;13.52;;;7.65;;
6452;SDS011;3259;51.080;13.712;2022-10-31T02:34:02;9.50;;;6.75;;
6452;SDS011;3259;51.080;13.712;2022-10-31T02:36:56;10.25;;;7.00;;
6452;SDS011;3259;51.080;13.712;2022-10-31T02:39:48;9.88;;;7.70;;
6452;SDS011;3259;51.080;13.712;2022-10-31T02:42:44;9.27;;;7.15;;
6452;SDS011;3259;51.080;13.712;2022-10-31T02:45:38;10.30;;;7.82;;
6452;SDS011;3259;51.080;13.712;2022-10-31T02:48:33;8.50;;;7.18;;
6452;SDS011;3259;51.080;13.712;2022-10-31T02:51:24;8.77;;;6.93;;
6452;SDS011;3259;51.080;13.712;2022-10-31T02:54:19;10.77;;;7.50;;
6452;SDS011;3259;51.080;13.712;2022-10-31T02:57:10;9.00;;;7.07;;
6452;SDS011;3259;51.080;13.712;2022-10-31T02:59:59;10.95;;;7.45;;
6452;SDS011;3259;51.080;13.712;2022-10-31T03:02:53;10.55;;;6.88;;
6452;SDS011;3259;51.080;13.712;2022-10-31T03:05:49;12.13;;;7.38;;
6452;SDS011;3259;51.080;13.712;2022-10-31T03:08:42;9.65;;;7.53;;
6452;SDS011;3259;51.080;13.712;2022-10-31T03:11:38;8.13;;;7.07;;
6452;SDS011;3259;51.080;13.712;2022-10-31T03:14:33;8.25;;;7.03;;
6452;SDS011;3259;51.080;13.712;2022-10-31T03:17:29;9.80;;;6.68;;
6452;SDS011;3259;51.080;13.712;2022-10-31T03:20:24;10.63;;;6.93;;
6452;SDS011;3259;51.080;13.712;2022-10-31T03:23:17;10.05;;;7.35;;
6452;SDS011;3259;51.080;13.712;2022-10-31T03:26:08;12.13;;;7.38;;
6452;SDS011;3259;51.080;13.712;2022-10-31T03:28:59;11.10;;;7.18;;
6452;SDS011;3259;51.080;13.712;2022-10-31T03:31:53;8.63;;;6.15;;
6452;SDS011;3259;51.080;13.712;2022-10-31T03:34:43;9.55;;;6.78;;
6452;SDS011;3259;51.080;13.712;2022-10-31T03:37:34;9.23;;;6.50;;
6452;SDS011;3259;51.080;13.712;2022-10-31T03:40:25;9.75;;;6.95;;
6452;SDS011;3259;51.080;13.712;2022-10-31T03:43:16;8.25;;;6.70;;
6452;SDS011;3259;51.080;13.712;2022-10-31T03:46:08;8.63;;;6.85;;
6452;SDS011;3259;51.080;13.712;2022-10-31T03:48:57;7.35;;;6.25;;
6452;SDS011;3259;51.080;13.712;2022-10-31T03:51:47;12.88;;;6.95;;
6452;SDS011;3259;51.080;13.712;2022-10-31T03:54:40;9.38;;;6.43;;
6452;SDS011;3259;51.080;13.712;2022-10-31T03:57:34;9.25;;;6.10;;
6452;SDS011;3259;51.080;13.712;2022-10-31T04:00:24;9.98;;;6.75;;
6452;SDS011;3259;51.080;13.712;2022-10-31T04:03:14;8.23;;;5.88;;
6452;SDS011;3259;51.080;13.712;2022-10-31T04:06:04;8.95;;;6.65;;
6452;SDS011;3259;51.080;13.712;2022-10-31T04:08:56;10.23;;;6.63;;
6452;SDS011;3259;51.080;13.712;2022-10-31T04:11:46;12.02;;;7.28;;
6452;SDS011;3259;51.080;13.712;2022-10-31T04:14:38;10.50;;;6.93;;
6452;SDS011;3259;51.080;13.712;2022-10-31T04:17:28;8.27;;;6.50;;
6452;SDS011;3259;51.080;13.712;2022-10-31T04:20:18;8.00;;;6.32;;
6452;SDS011;3259;51.080;13.712;2022-10-31T04:23:09;7.75;;;5.78;;
6452;SDS011;3259;51.080;13.712;2022-10-31T04:26:03;10.98;;;6.20;;
6452;SDS011;3259;51.080;13.712;2022-10-31T04:28:52;11.45;;;6.85;;
6452;SDS011;3259;51.080;13.712;2022-10-31T04:31:42;7.07;;;5.70;;
6452;SDS011;3259;51.080;13.712;2022-10-31T04:34:31;8.30;;;5.75;;
6452;SDS011;3259;51.080;13.712;2022-10-31T04:37:19;10.45;;;5.95;;
6452;SDS011;3259;51.080;13.712;2022-10-31T04:40:08;9.88;;;6.13;;
6452;SDS011;3259;51.080;13.712;2022-10-31T04:42:57;7.60;;;5.95;;
6452;SDS011;3259;51.080;13.712;2022-10-31T04:45:46;8.15;;;6.55;;
6452;SDS011;3259;51.080;13.712;2022-10-31T04:48:36;8.35;;;5.40;;
6452;SDS011;3259;51.080;13.712;2022-10-31T04:51:25;9.40;;;6.25;;
6452;SDS011;3259;51.080;13.712;2022-10-31T04:54:13;8.57;;;6.00;;
6452;SDS011;3259;51.080;13.712;2022-10-31T04:57:02;9.63;;;6.68;;
6452;SDS011;3259;51.080;13.712;2022-10-31T04:59:50;6.60;;;5.47;;
6452;SDS011;3259;51.080;13.712;2022-10-31T05:02:42;7.97;;;6.82;;
6452;SDS011;3259;51.080;13.712;2022-10-31T05:05:33;8.88;;;6.13;;
6452;SDS011;3259;51.080;13.712;2022-10-31T05:08:21;6.25;;;5.20;;
6452;SDS011;3259;51.080;13.712;2022-10-31T05:11:10;8.70;;;5.53;;
6452;SDS011;3259;51.080;13.712;2022-10-31T05:13:58;8.95;;;5.78;;
6452;SDS011;3259;51.080;13.712;2022-10-31T05:16:47;7.22;;;5.70;;
6452;SDS011;3259;51.080;13.712;2022-10-31T05:19:36;7.32;;;5.85;;
6452;SDS011;3259;51.080;13.712;2022-10-31T05:22:44;8.27;;;5.53;;
6452;SDS011;3259;51.080;13.712;2022-10-31T05:25:48;6.88;;;5.15;;
6452;SDS011;3259;51.080;13.712;2022-10-31T05:28:40;8.80;;;5.28;;
6452;SDS011;3259;51.080;13.712;2022-10-31T05:31:38;11.35;;;6.38;;
6452;SDS011;3259;51.080;13.712;2022-10-31T05:34:30;9.05;;;5.28;;
6452;SDS011;3259;51.080;13.712;2022-10-31T05:37:36;6.93;;;5.40;;
6452;SDS011;3259;51.080;13.712;2022-10-31T05:40:42;7.05;;;5.78;;
6452;SDS011;3259;51.080;13.712;2022-10-31T05:43:30;5.97;;;4.70;;
6452;SDS011;3259;51.080;13.712;2022-10-31T05:46:19;8.23;;;5.78;;
6452;SDS011;3259;51.080;13.712;2022-10-31T05:49:08;9.73;;;6.05;;
6452;SDS011;3259;51.080;13.712;2022-10-31T05:51:56;10.68;;;6.70;;
6452;SDS011;3259;51.080;13.712;2022-10-31T05:54:45;10.30;;;8.32;;
6452;SDS011;3259;51.080;13.712;2022-10-31T05:57:34;9.35;;;7.35;;
6452;SDS011;3259;51.080;13.712;2022-10-31T06:00:23;12.93;;;8.20;;
6452;SDS011;3259;51.080;13.712;2022-10-31T06:03:13;9.48;;;7.40;;
6452;SDS011;3259;51.080;13.712;2022-10-31T06:06:01;9.65;;;7.68;;
6452;SDS011;3259;51.080;13.712;2022-10-31T06:08:50;10.93;;;7.28;;
6452;SDS011;3259;51.080;13.712;2022-10-31T06:11:38;7.50;;;6.70;;
6452;SDS011;3259;51.080;13.712;2022-10-31T06:14:28;10.10;;;7.28;;
6452;SDS011;3259;51.080;13.712;2022-10-31T06:17:19;9.35;;;6.65;;
6452;SDS011;3259;51.080;13.712;2022-10-31T06:20:08;7.32;;;6.63;;
6452;SDS011;3259;51.080;13.712;2022-10-31T06:22:57;7.97;;;6.35;;
6452;SDS011;3259;51.080;13.712;2022-10-31T06:25:48;8.65;;;6.60;;
6452;SDS011;3259;51.080;13.712;2022-10-31T06:28:37;7.95;;;5.65;;
6452;SDS011;3259;51.080;13.712;2022-10-31T06:31:26;7.50;;;5.78;;
6452;SDS011;3259;51.080;13.712;2022-10-31T06:34:15;7.93;;;5.75;;
6452;SDS011;3259;51.080;13.712;2022-10-31T06:37:05;7.40;;;5.05;;
6452;SDS011;3259;51.080;13.712;2022-10-31T06:39:54;6.80;;;6.07;;
6452;SDS011;3259;51.080;13.712;2022-10-31T06:42:42;10.63;;;5.88;;
6452;SDS011;3259;51.080;13.712;2022-10-31T06:45:31;6.13;;;5.20;;
6452;SDS011;3259;51.080;13.712;2022-10-31T06:48:21;7.60;;;4.95;;
6452;SDS011;3259;51.080;13.712;2022-10-31T06:51:10;7.57;;;5.60;;
6452;SDS011;3259;51.080;13.712;2022-10-31T06:53:58;7.35;;;5.45;;
6452;SDS011;3259;51.080;13.712;2022-10-31T06:56:47;9.43;;;5.53;;
6452;SDS011;3259;51.080;13.712;2022-10-31T06:59:36;6.85;;;5.60;;
6452;SDS011;3259;51.080;13.712;2022-10-31T07:02:24;6.50;;;5.35;;
6452;SDS011;3259;51.080;13.712;2022-10-31T07:05:14;8.00;;;4.97;;
6452;SDS011;3259;51.080;13.712;2022-10-31T07:08:04;5.10;;;4.63;;
6452;SDS011;3259;51.080;13.712;2022-10-31T07:10:54;7.50;;;5.18;;
6452;SDS011;3259;51.080;13.712;2022-10-31T07:13:44;7.18;;;5.75;;
6452;SDS011;3259;51.080;13.712;2022-10-31T07:16:34;8.25;;;5.65;;
6452;SDS011;3259;51.080;13.712;2022-10-31T07:19:22;14.40;;;5.43;;
6452;SDS011;3259;51.080;13.712;2022-10-31T07:22:12;6.80;;;5.60;;
6452;SDS011;3259;51.080;13.712;2022-10-31T07:25:01;5.57;;;4.90;;
6452;SDS011;3259;51.080;13.712;2022-10-31T07:27:49;6.82;;;5.10;;
6452;SDS011;3259;51.080;13.712;2022-10-31T07:30:38;8.95;;;5.05;;
6452;SDS011;3259;51.080;13.712;2022-10-31T07:33:26;7.55;;;6.20;;
6452;SDS011;3259;51.080;13.712;2022-10-31T07:36:15;7.55;;;5.25;;
6452;SDS011;3259;51.080;13.712;2022-10-31T07:39:05;6.65;;;5.90;;
6452;SDS011;3259;51.080;13.712;2022-10-31T07:41:54;8.93;;;6.55;;
6452;SDS011;3259;51.080;13.712;2022-10-31T07:44:53;10.18;;;6.43;;
6452;SDS011;3259;51.080;13.712;2022-10-31T07:47:59;9.25;;;6.00;;
6452;SDS011;3259;51.080;13.712;2022-10-31T07:50:49;8.50;;;6.18;;
6452;SDS011;3259;51.080;13.712;2022-10-31T07:53:38;6.80;;;5.38;;
6452;SDS011;3259;51.080;13.712;2022-10-31T07:56:44;7.07;;;5.25;;
6452;SDS011;3259;51.080;13.712;2022-10-31T07:59:48;6.88;;;4.35;;
6452;SDS011;3259;51.080;13.712;2022-10-31T08:02:36;5.35;;;4.55;;
6452;SDS011;3259;51.080;13.712;2022-10-31T08:05:25;6.93;;;5.10;;
6452;SDS011;3259;51.080;13.712;2022-10-31T08:08:14;5.15;;;4.38;;
6452;SDS011;3259;51.080;13.712;2022-10-31T08:11:03;6.65;;;5.38;;
6452;SDS011;3259;51.080;13.712;2022-10-31T08:13:56;6.97;;;5.32;;
6452;SDS011;3259;51.080;13.712;2022-10-31T08:16:44;8.05;;;5.03;;
6452;SDS011;3259;51.080;13.712;2022-10-31T08:19:33;6.28;;;5.00;;
6452;SDS011;3259;51.080;13.712;2022-10-31T08:22:21;13.15;;;4.78;;
6452;SDS011;3259;51.080;13.712;2022-10-31T08:25:10;6.70;;;4.40;;
6452;SDS011;3259;51.080;13.712;2022-10-31T08:27:58;6.63;;;4.25;;
6452;SDS011;3259;51.080;13.712;2022-10-31T08:30:50;4.43;;;4.03;;
6452;SDS011;3259;51.080;13.712;2022-10-31T08:33:39;4.90;;;4.10;;
6452;SDS011;3259;51.080;13.712;2022-10-31T08:36:27;4.43;;;3.58;;
6452;SDS011;3259;51.080;13.712;2022-10-31T08:39:16;5.22;;;3.88;;
6452;SDS011;3259;51.080;13.712;2022-10-31T08:42:05;4.25;;;3.90;;
6452;SDS011;3259;51.080;13.712;2022-10-31T08:44:53;4.70;;;3.97;;
6452;SDS011;3259;51.080;13.712;2022-10-31T08:47:43;4.30;;;3.40;;
6452;SDS011;3259;51.080;13.712;2022-10-31T08:50:32;4.20;;;3.10;;
6452;SDS011;3259;51.080;13.712;2022-10-31T08:53:22;5.03;;;4.00;;
6452;SDS011;3259;51.080;13.712;2022-10-31T08:56:11;3.70;;;3.40;;
6452;SDS011;3259;51.080;13.712;2022-10-31T08:58:59;4.72;;;3.80;;
6452;SDS011;3259;51.080;13.712;2022-10-31T09:01:49;3.90;;;3.60;;
6452;SDS011;3259;51.080;13.712;2022-10-31T09:04:39;4.07;;;3.67;;
6452;SDS011;3259;51.080;13.712;2022-10-31T09:07:27;4.65;;;3.40;;
6452;SDS011;3259;51.080;13.712;2022-10-31T09:10:16;3.30;;;3.00;;
6452;SDS011;3259;51.080;13.712;2022-10-31T09:13:05;3.78;;;3.05;;
6452;SDS011;3259;51.080;13.712;2022-10-31T09:15:56;4.00;;;3.60;;
6452;SDS011;3259;51.080;13.712;2022-10-31T09:18:45;4.10;;;3.70;;
6452;SDS011;3259;51.080;13.712;2022-10-31T09:21:35;10.35;;;7.97;;
6452;SDS011;3259;51.080;13.712;2022-10-31T09:27:01;61.35;;;40.63;;
6452;SDS011;3259;51.080;13.712;2022-10-31T09:29:55;94.28;;;59.35;;
6452;SDS011;3259;51.080;13.712;2022-10-31T09:32:42;124.13;;;77.03;;
6452;SDS011;3259;51.080;13.712;2022-10-31T09:35:31;186.98;;;120.35;;
6452;SDS011;3259;51.080;13.712;2022-10-31T09:38:22;254.48;;;166.25;;
6452;SDS011;3259;51.080;13.712;2022-10-31T09:41:14;200.57;;;138.23;;
6452;SDS011;3259;51.080;13.712;2022-10-31T09:46:45;112.72;;;76.07;;
6452;SDS011;3259;51.080;13.712;2022-10-31T09:49:49;89.15;;;58.38;;
6452;SDS011;3259;51.080;13.712;2022-10-31T09:52:51;65.32;;;44.10;;
6452;SDS011;3259;51.080;13.712;2022-10-31T09:55:47;61.10;;;38.95;;
6452;SDS011;3259;51.080;13.712;2022-10-31T09:58:25;46.78;;;33.08;;
6452;SDS011;3259;51.080;13.712;2022-10-31T10:01:22;51.45;;;35.55;;
6452;SDS011;3259;51.080;13.712;2022-10-31T10:04:19;44.15;;;32.13;;
6452;SDS011;3259;51.080;13.712;2022-10-31T10:07:22;43.92;;;30.73;;
6452;SDS011;3259;51.080;13.712;2022-10-31T10:10:24;37.33;;;27.20;;
6452;SDS011;3259;51.080;13.712;2022-10-31T10:13:25;36.15;;;25.63;;
6452;SDS011;3259;51.080;13.712;2022-10-31T10:16:22;38.28;;;25.55;;
6452;SDS011;3259;51.080;13.712;2022-10-31T10:19:27;21.05;;;15.80;;
6452;SDS011;3259;51.080;13.712;2022-10-31T10:22:23;18.67;;;13.07;;
6452;SDS011;3259;51.080;13.712;2022-10-31T10:28:11;13.77;;;10.32;;
6452;SDS011;3259;51.080;13.712;2022-10-31T10:31:08;19.58;;;10.55;;
6452;SDS011;3259;51.080;13.712;2022-10-31T10:33:58;15.00;;;9.20;;
6452;SDS011;3259;51.080;13.712;2022-10-31T10:39:43;11.95;;;7.97;;
6452;SDS011;3259;51.080;13.712;2022-10-31T10:42:33;9.35;;;6.03;;
6452;SDS011;3259;51.080;13.712;2022-10-31T10:45:40;7.65;;;5.35;;
6452;SDS011;3259;51.080;13.712;2022-10-31T10:48:57;7.47;;;6.40;;
6452;SDS011;3259;51.080;13.712;2022-10-31T10:51:50;10.98;;;5.65;;
6452;SDS011;3259;51.080;13.712;2022-10-31T10:55:03;10.30;;;5.80;;
6452;SDS011;3259;51.080;13.712;2022-10-31T10:57:58;12.15;;;5.97;;
6452;SDS011;3259;51.080;13.712;2022-10-31T11:00:49;9.55;;;5.72;;
6452;SDS011;3259;51.080;13.712;2022-10-31T11:03:38;6.82;;;5.28;;
6452;SDS011;3259;51.080;13.712;2022-10-31T11:06:28;8.82;;;5.40;;
6452;SDS011;3259;51.080;13.712;2022-10-31T11:09:17;7.20;;;4.72;;
6452;SDS011;3259;51.080;13.712;2022-10-31T11:12:07;10.70;;;5.22;;
6452;SDS011;3259;51.080;13.712;2022-10-31T11:14:57;9.02;;;4.70;;
6452;SDS011;3259;51.080;13.712;2022-10-31T11:17:48;10.40;;;4.40;;
6452;SDS011;3259;51.080;13.712;2022-10-31T11:20:37;10.60;;;4.28;;
6452;SDS011;3259;51.080;13.712;2022-10-31T11:23:27;7.70;;;4.38;;
6452;SDS011;3259;51.080;13.712;2022-10-31T11:26:18;5.68;;;3.95;;
6452;SDS011;3259;51.080;13.712;2022-10-31T11:29:11;8.82;;;4.65;;
6452;SDS011;3259;51.080;13.712;2022-10-31T11:32:03;12.75;;;5.38;;
6452;SDS011;3259;51.080;13.712;2022-10-31T11:34:52;11.82;;;5.50;;
6452;SDS011;3259;51.080;13.712;2022-10-31T11:37:42;13.20;;;6.28;;
6452;SDS011;3259;51.080;13.712;2022-10-31T11:40:33;20.25;;;7.38;;
6452;SDS011;3259;51.080;13.712;2022-10-31T11:43:22;6.20;;;5.35;;
6452;SDS011;3259;51.080;13.712;2022-10-31T11:46:11;9.68;;;5.50;;
6452;SDS011;3259;51.080;13.712;2022-10-31T11:49:02;9.00;;;5.32;;
6452;SDS011;3259;51.080;13.712;2022-10-31T11:51:52;9.90;;;5.78;;
6452;SDS011;3259;51.080;13.712;2022-10-31T11:54:42;11.55;;;5.38;;
6452;SDS011;3259;51.080;13.712;2022-10-31T11:57:43;14.93;;;6.30;;
6452;SDS011;3259;51.080;13.712;2022-10-31T12:00:33;16.42;;;5.55;;
6452;SDS011;3259;51.080;13.712;2022-10-31T12:03:29;10.43;;;5.78;;
6452;SDS011;3259;51.080;13.712;2022-10-31T12:06:26;9.98;;;4.97;;
6452;SDS011;3259;51.080;13.712;2022-10-31T12:09:19;7.05;;;5.22;;
6452;SDS011;3259;51.080;13.712;2022-10-31T12:12:22;11.30;;;5.72;;
6452;SDS011;3259;51.080;13.712;2022-10-31T12:15:25;11.13;;;5.53;;
6452;SDS011;3259;51.080;13.712;2022-10-31T12:18:25;11.23;;;5.55;;
6452;SDS011;3259;51.080;13.712;2022-10-31T12:21:21;12.68;;;5.28;;
6452;SDS011;3259;51.080;13.712;2022-10-31T12:24:22;7.10;;;4.72;;
6452;SDS011;3259;51.080;13.712;2022-10-31T12:27:20;9.73;;;4.78;;
6452;SDS011;3259;51.080;13.712;2022-10-31T12:30:15;11.45;;;5.03;;
6452;SDS011;3259;51.080;13.712;2022-10-31T12:33:14;15.15;;;4.50;;
6452;SDS011;3259;51.080;13.712;2022-10-31T12:36:12;7.28;;;4.30;;
6452;SDS011;3259;51.080;13.712;2022-10-31T12:39:14;5.97;;;4.55;;
6452;SDS011;3259;51.080;13.712;2022-10-31T12:42:15;11.10;;;4.75;;
6452;SDS011;3259;51.080;13.712;2022-10-31T12:45:17;9.35;;;5.03;;
6452;SDS011;3259;51.080;13.712;2022-10-31T12:51:48;13.77;;;4.70;;
6452;SDS011;3259;51.080;13.712;2022-10-31T12:54:50;8.50;;;3.63;;
6452;SDS011;3259;51.080;13.712;2022-10-31T12:57:47;11.13;;;3.95;;
6452;SDS011;3259;51.080;13.712;2022-10-31T13:00:39;9.38;;;3.50;;
6452;SDS011;3259;51.080;13.712;2022-10-31T13:03:31;7.05;;;4.65;;
6452;SDS011;3259;51.080;13.712;2022-10-31T13:06:24;6.97;;;4.32;;
6452;SDS011;3259;51.080;13.712;2022-10-31T13:09:18;7.93;;;3.67;;
6452;SDS011;3259;51.080;13.712;2022-10-31T13:12:09;8.68;;;3.60;;
6452;SDS011;3259;51.080;13.712;2022-10-31T13:14:59;9.23;;;3.70;;
6452;SDS011;3259;51.080;13.712;2022-10-31T13:17:53;10.50;;;4.30;;
6452;SDS011;3259;51.080;13.712;2022-10-31T13:20:44;7.10;;;4.00;;
6452;SDS011;3259;51.080;13.712;2022-10-31T13:23:41;8.38;;;3.88;;
6452;SDS011;3259;51.080;13.712;2022-10-31T13:26:38;7.45;;;3.97;;
6452;SDS011;3259;51.080;13.712;2022-10-31T13:29:30;7.97;;;3.25;;
6452;SDS011;3259;51.080;13.712;2022-10-31T13:32:21;5.53;;;3.50;;
6452;SDS011;3259;51.080;13.712;2022-10-31T13:35:12;6.10;;;3.53;;
6452;SDS011;3259;51.080;13.712;2022-10-31T13:38:17;5.97;;;3.53;;
6452;SDS011;3259;51.080;13.712;2022-10-31T13:41:11;5.22;;;3.33;;
6452;SDS011;3259;51.080;13.712;2022-10-31T13:44:10;7.70;;;3.28;;
6452;SDS011;3259;51.080;13.712;2022-10-31T13:47:01;11.77;;;3.58;;
6452;SDS011;3259;51.080;13.712;2022-10-31T13:49:50;4.03;;;2.85;;
6452;SDS011;3259;51.080;13.712;2022-10-31T13:52:38;9.55;;;3.30;;
6452;SDS011;3259;51.080;13.712;2022-10-31T13:55:37;6.95;;;3.90;;
6452;SDS011;3259;51.080;13.712;2022-10-31T13:58:27;6.22;;;3.33;;
6452;SDS011;3259;51.080;13.712;2022-10-31T14:01:18;8.77;;;3.30;;
6452;SDS011;3259;51.080;13.712;2022-10-31T14:04:12;7.60;;;3.58;;
6452;SDS011;3259;51.080;13.712;2022-10-31T14:07:10;10.25;;;4.15;;
6452;SDS011;3259;51.080;13.712;2022-10-31T14:10:02;9.52;;;3.47;;
6452;SDS011;3259;51.080;13.712;2022-10-31T14:12:52;7.20;;;3.53;;
6452;SDS011;3259;51.080;13.712;2022-10-31T14:15:42;13.85;;;3.55;;
6452;SDS011;3259;51.080;13.712;2022-10-31T14:18:41;8.93;;;3.90;;
6452;SDS011;3259;51.080;13.712;2022-10-31T14:21:36;6.38;;;3.70;;
6452;SDS011;3259;51.080;13.712;2022-10-31T14:24:36;7.95;;;3.42;;
6452;SDS011;3259;51.080;13.712;2022-10-31T14:27:35;9.50;;;3.15;;
6452;SDS011;3259;51.080;13.712;2022-10-31T14:30:33;5.68;;;3.05;;
6452;SDS011;3259;51.080;13.712;2022-10-31T14:33:22;8.57;;;3.22;;
6452;SDS011;3259;51.080;13.712;2022-10-31T14:36:17;5.80;;;3.30;;
6452;SDS011;3259;51.080;13.712;2022-10-31T14:39:10;9.02;;;3.50;;
6452;SDS011;3259;51.080;13.712;2022-10-31T14:42:06;5.60;;;3.22;;
6452;SDS011;3259;51.080;13.712;2022-10-31T14:45:09;8.82;;;4.03;;
6452;SDS011;3259;51.080;13.712;2022-10-31T14:48:08;5.78;;;2.83;;
6452;SDS011;3259;51.080;13.712;2022-10-31T14:51:00;8.32;;;3.35;;
6452;SDS011;3259;51.080;13.712;2022-10-31T14:53:53;8.23;;;3.47;;
6452;SDS011;3259;51.080;13.712;2022-10-31T14:56:50;7.07;;;3.85;;
6452;SDS011;3259;51.080;13.712;2022-10-31T14:59:44;13.10;;;4.07;;
6452;SDS011;3259;51.080;13.712;2022-10-31T15:02:37;5.63;;;3.20;;
6452;SDS011;3259;51.080;13.712;2022-10-31T15:05:29;14.40;;;4.72;;
6452;SDS011;3259;51.080;13.712;2022-10-31T15:08:32;11.80;;;4.40;;
6452;SDS011;3259;51.080;13.712;2022-10-31T15:11:24;8.95;;;4.60;;
6452;SDS011;3259;51.080;13.712;2022-10-31T15:14:17;10.50;;;4.60;;
6452;SDS011;3259;51.080;13.712;2022-10-31T15:17:10;8.73;;;3.83;;
6452;SDS011;3259;51.080;13.712;2022-10-31T15:19:59;7.97;;;4.55;;
6452;SDS011;3259;51.080;13.712;2022-10-31T15:22:48;27.52;;;4.75;;
6452;SDS011;3259;51.080;13.712;2022-10-31T15:25:37;9.60;;;3.80;;
6452;SDS011;3259;51.080;13.712;2022-10-31T15:28:27;7.18;;;4.28;;
6452;SDS011;3259;51.080;13.712;2022-10-31T15:31:17;8.35;;;4.03;;
6452;SDS011;3259;51.080;13.712;2022-10-31T15:34:11;7.30;;;3.50;;
6452;SDS011;3259;51.080;13.712;2022-10-31T15:37:03;11.88;;;4.38;;
6452;SDS011;3259;51.080;13.712;2022-10-31T15:39:52;8.27;;;3.97;;
6452;SDS011;3259;51.080;13.712;2022-10-31T15:42:40;6.50;;;3.80;;
6452;SDS011;3259;51.080;13.712;2022-10-31T15:45:31;6.20;;;4.15;;
6452;SDS011;3259;51.080;13.712;2022-10-31T15:48:21;7.05;;;3.70;;
6452;SDS011;3259;51.080;13.712;2022-10-31T15:51:11;9.60;;;4.18;;
6452;SDS011;3259;51.080;13.712;2022-10-31T15:54:00;13.68;;;4.47;;
6452;SDS011;3259;51.080;13.712;2022-10-31T15:56:48;8.55;;;3.60;;
6452;SDS011;3259;51.080;13.712;2022-10-31T15:59:37;5.32;;;3.40;;
6452;SDS011;3259;51.080;13.712;2022-10-31T16:02:28;10.25;;;3.97;;
6452;SDS011;3259;51.080;13.712;2022-10-31T16:05:18;9.90;;;4.38;;
6452;SDS011;3259;51.080;13.712;2022-10-31T16:08:23;8.93;;;4.82;;
6452;SDS011;3259;51.080;13.712;2022-10-31T16:11:17;8.02;;;5.05;;
6452;SDS011;3259;51.080;13.712;2022-10-31T16:14:15;5.30;;;4.63;;
6452;SDS011;3259;51.080;13.712;2022-10-31T16:17:11;6.85;;;4.68;;
6452;SDS011;3259;51.080;13.712;2022-10-31T16:20:03;8.50;;;5.07;;
6452;SDS011;3259;51.080;13.712;2022-10-31T16:22:53;7.88;;;4.90;;
6452;SDS011;3259;51.080;13.712;2022-10-31T16:25:44;7.78;;;4.40;;
6452;SDS011;3259;51.080;13.712;2022-10-31T16:28:32;9.10;;;5.90;;
6452;SDS011;3259;51.080;13.712;2022-10-31T16:31:27;9.43;;;6.30;;
6452;SDS011;3259;51.080;13.712;2022-10-31T16:34:19;7.32;;;4.88;;
6452;SDS011;3259;51.080;13.712;2022-10-31T16:37:13;9.82;;;5.72;;
6452;SDS011;3259;51.080;13.712;2022-10-31T16:40:04;9.82;;;5.43;;
6452;SDS011;3259;51.080;13.712;2022-10-31T16:42:55;9.82;;;6.18;;
6452;SDS011;3259;51.080;13.712;2022-10-31T16:45:47;18.95;;;7.45;;
6452;SDS011;3259;51.080;13.712;2022-10-31T16:48:36;22.83;;;7.32;;
6452;SDS011;3259;51.080;13.712;2022-10-31T16:51:25;19.45;;;8.02;;
6452;SDS011;3259;51.080;13.712;2022-10-31T16:54:15;20.15;;;9.35;;
6452;SDS011;3259;51.080;13.712;2022-10-31T16:57:04;15.23;;;8.88;;
6452;SDS011;3259;51.080;13.712;2022-10-31T16:59:53;16.67;;;9.55;;
6452;SDS011;3259;51.080;13.712;2022-10-31T17:02:42;12.23;;;8.43;;
6452;SDS011;3259;51.080;13.712;2022-10-31T17:05:31;17.23;;;9.82;;
6452;SDS011;3259;51.080;13.712;2022-10-31T17:08:20;18.83;;;9.15;;
6452;SDS011;3259;51.080;13.712;2022-10-31T17:11:13;16.25;;;8.30;;
6452;SDS011;3259;51.080;13.712;2022-10-31T17:14:03;12.00;;;7.28;;
6452;SDS011;3259;51.080;13.712;2022-10-31T17:16:52;14.70;;;8.10;;
6452;SDS011;3259;51.080;13.712;2022-10-31T17:19:43;12.60;;;7.50;;
6452;SDS011;3259;51.080;13.712;2022-10-31T17:22:32;10.32;;;7.15;;
6452;SDS011;3259;51.080;13.712;2022-10-31T17:25:21;10.13;;;7.30;;
6452;SDS011;3259;51.080;13.712;2022-10-31T17:28:13;12.02;;;7.85;;
6452;SDS011;3259;51.080;13.712;2022-10-31T17:31:02;9.48;;;7.13;;
6452;SDS011;3259;51.080;13.712;2022-10-31T17:33:50;19.55;;;7.10;;
6452;SDS011;3259;51.080;13.712;2022-10-31T17:36:49;13.27;;;7.53;;
6452;SDS011;3259;51.080;13.712;2022-10-31T17:39:38;11.57;;;6.82;;
6452;SDS011;3259;51.080;13.712;2022-10-31T17:42:26;10.48;;;7.20;;